Time;durP1;ratioP1;P1;durP2;ratioP2;P2;SDS_P1;SDS_P2;PMS_P1;PMS_P2;Temp;Humidity;BMP_temperature;BMP_pressure;BME280_temperature;BME280_humidity;BME280_pressure;Samples;Min_cycle;Max_cycle;Signal;HPM_P1;HPM_P2
2023/01/22 00:00:04;;;;;;;15.60;5.73;;;;;;;0.55;100.00;102062.97;4933575;29;20036;-86
2023/01/22 00:02:34;;;;;;;7.83;4.37;;;;;;;0.47;100.00;102056.56;4908308;29;20046;-85
2023/01/22 00:05:02;;;;;;;9.40;3.83;;;;;;;0.47;100.00;102061.75;4953542;28;20432;-86
2023/01/22 00:07:29;;;;;;;9.57;4.23;;;;;;;0.47;100.00;102055.66;4928507;29;20102;-85
2023/01/22 00:09:56;;;;;;;12.37;4.37;;;;;;;0.43;100.00;102067.66;4950133;28;20032;-85
2023/01/22 00:12:22;;;;;;;13.13;5.27;;;;;;;0.36;100.00;102060.41;4936921;29;20053;-87
2023/01/22 00:14:49;;;;;;;9.50;4.30;;;;;;;0.34;100.00;102064.66;4935406;28;20047;-85
2023/01/22 00:17:16;;;;;;;11.23;6.03;;;;;;;0.47;100.00;102053.06;4921173;29;20050;-86
2023/01/22 00:19:43;;;;;;;10.47;5.33;;;;;;;0.39;100.00;102055.34;4920038;29;20040;-85
2023/01/22 00:22:11;;;;;;;8.77;4.37;;;;;;;0.32;100.00;102063.69;4934361;29;20510;-85
2023/01/22 00:24:40;;;;;;;11.27;4.13;;;;;;;0.45;100.00;102066.00;4913637;28;20047;-85
2023/01/22 00:27:07;;;;;;;11.80;4.50;;;;;;;0.22;100.00;102065.00;4933475;29;20047;-85
2023/01/22 00:29:33;;;;;;;9.50;4.07;;;;;;;0.40;100.00;102062.31;4934662;29;20576;-85
2023/01/22 00:32:00;;;;;;;8.47;4.80;;;;;;;0.30;100.00;102059.25;4951978;29;20047;-84
2023/01/22 00:34:27;;;;;;;7.70;4.17;;;;;;;0.43;100.00;102054.66;4949794;28;20471;-84
2023/01/22 00:36:54;;;;;;;9.50;4.70;;;;;;;0.41;100.00;102066.69;4934810;29;20047;-85
2023/01/22 00:43:06;;;;;;;11.67;5.03;;;;;;;0.36;100.00;102064.72;4950359;29;20593;-85
2023/01/22 00:45:33;;;;;;;9.33;4.37;;;;;;;0.35;100.00;102063.84;4928180;29;20050;-85
2023/01/22 00:48:00;;;;;;;10.40;4.10;;;;;;;0.35;100.00;102073.34;4937536;29;20424;-84
2023/01/22 00:54:58;;;;;;;9.00;4.57;;;;;;;0.38;100.00;102071.75;4954004;28;20054;-85
2023/01/22 00:57:39;;;;;;;6.67;4.67;;;;;;;0.42;100.00;102072.75;4954359;29;20051;-85
2023/01/22 01:00:07;;;;;;;10.80;4.13;;;;;;;0.38;100.00;102069.16;4923416;29;20057;-84
2023/01/22 01:03:25;;;;;;;8.63;4.17;;;;;;;0.39;100.00;102064.84;4954133;28;20654;-85
2023/01/22 01:05:21;;;;;;;10.47;4.67;;;;;;;0.34;100.00;102066.34;4942052;29;20043;-84
2023/01/22 01:07:48;;;;;;;10.40;4.97;;;;;;;0.25;100.00;102074.63;4919715;29;20126;-84
2023/01/22 01:10:15;;;;;;;6.20;3.33;;;;;;;0.32;100.00;102068.00;4939270;29;20102;-84
2023/01/22 01:12:45;;;;;;;9.27;4.93;;;;;;;0.38;100.00;102058.75;4920812;29;20059;-83
2023/01/22 01:15:12;;;;;;;6.20;3.37;;;;;;;0.31;100.00;102069.72;4938416;29;20054;-83
2023/01/22 01:17:42;;;;;;;8.87;3.60;;;;;;;0.34;100.00;102062.06;4938957;29;20062;-84
2023/01/22 01:20:09;;;;;;;11.07;3.67;;;;;;;0.39;100.00;102059.66;4923228;28;20059;-83
2023/01/22 01:22:54;;;;;;;6.53;3.73;;;;;;;0.36;100.00;102060.41;4941439;29;20043;-84
2023/01/22 01:25:25;;;;;;;6.60;3.50;;;;;;;0.43;100.00;102061.56;4948026;29;20305;-84
2023/01/22 01:27:53;;;;;;;9.83;3.90;;;;;;;0.39;100.00;102059.66;4938375;29;20061;-83
2023/01/22 01:30:20;;;;;;;8.77;3.67;;;;;;;0.37;100.00;102063.91;4928244;28;20035;-85
2023/01/22 01:32:48;;;;;;;7.07;3.67;;;;;;;0.41;100.00;102064.06;4932981;29;20062;-86
2023/01/22 01:35:15;;;;;;;8.33;3.77;;;;;;;0.42;100.00;102059.75;4919906;28;20043;-85
2023/01/22 01:37:41;;;;;;;8.53;3.93;;;;;;;0.40;100.00;102057.09;4921777;28;20056;-85
2023/01/22 01:40:08;;;;;;;7.20;4.07;;;;;;;0.27;100.00;102060.00;4941285;28;20043;-85
2023/01/22 01:42:38;;;;;;;6.30;3.60;;;;;;;0.38;100.00;102065.66;4945486;28;20070;-84
2023/01/22 01:45:25;;;;;;;10.30;4.47;;;;;;;0.46;100.00;102067.78;4956063;28;20051;-85
2023/01/22 01:47:56;;;;;;;8.47;4.70;;;;;;;0.28;100.00;102062.69;4934062;28;20130;-85
2023/01/22 01:50:25;;;;;;;9.87;4.47;;;;;;;0.37;100.00;102072.59;4946618;29;20039;-86
2023/01/22 01:52:55;;;;;;;10.70;4.90;;;;;;;0.36;100.00;102076.00;4952873;28;20039;-85
2023/01/22 01:55:29;;;;;;;8.83;4.43;;;;;;;0.39;100.00;102075.25;4930368;28;20057;-84
2023/01/22 01:57:59;;;;;;;10.05;5.57;;;;;;;0.42;100.00;102071.09;4957050;28;20044;-86
2023/01/22 02:00:30;;;;;;;11.63;5.33;;;;;;;0.34;100.00;102069.88;4933067;28;20595;-84
2023/01/22 02:02:57;;;;;;;11.60;4.90;;;;;;;0.31;100.00;102080.09;4913676;29;20047;-85
2023/01/22 02:05:25;;;;;;;9.33;4.67;;;;;;;0.44;100.00;102068.53;4938161;28;20049;-85
2023/01/22 02:07:51;;;;;;;10.07;5.10;;;;;;;0.47;100.00;102072.16;4937274;29;20062;-85
2023/01/22 02:10:18;;;;;;;13.50;6.33;;;;;;;0.33;100.00;102080.16;4938188;29;20039;-85
2023/01/22 02:12:45;;;;;;;9.43;5.30;;;;;;;0.42;100.00;102086.69;4941751;29;20071;-84
2023/01/22 02:15:12;;;;;;;12.23;5.57;;;;;;;0.31;100.00;102085.31;4922311;29;20051;-84
2023/01/22 02:17:39;;;;;;;10.50;5.20;;;;;;;0.38;100.00;102089.06;4953607;29;20488;-85
2023/01/22 02:20:06;;;;;;;10.43;4.80;;;;;;;0.36;100.00;102099.41;4937425;29;20737;-85
2023/01/22 02:22:35;;;;;;;9.17;5.17;;;;;;;0.35;100.00;102094.16;4937449;29;20047;-86
2023/01/22 02:25:02;;;;;;;14.20;5.40;;;;;;;0.39;100.00;102102.13;4936188;29;20051;-87
2023/01/22 02:27:28;;;;;;;10.70;5.73;;;;;;;0.35;100.00;102109.75;4920821;29;20496;-87
2023/01/22 02:29:55;;;;;;;11.87;5.97;;;;;;;0.38;100.00;102102.06;4938410;29;20049;-86
2023/01/22 02:32:22;;;;;;;8.17;5.03;;;;;;;0.47;100.00;102105.94;4915605;29;20494;-86
2023/01/22 02:34:49;;;;;;;10.27;5.43;;;;;;;0.51;100.00;102100.06;4921188;29;20488;-86
2023/01/22 02:37:15;;;;;;;10.20;5.37;;;;;;;0.32;100.00;102104.38;4918929;29;20097;-87
2023/01/22 02:39:42;;;;;;;12.93;5.53;;;;;;;0.43;100.00;102097.97;4937060;29;20048;-87
2023/01/22 02:42:09;;;;;;;9.20;4.77;;;;;;;0.39;100.00;102094.31;4936044;29;20047;-86
2023/01/22 02:44:35;;;;;;;7.83;5.13;;;;;;;0.40;100.00;102095.22;4932541;29;20382;-87
2023/01/22 02:47:02;;;;;;;7.40;4.63;;;;;;;0.40;100.00;102098.69;4937342;29;20043;-88
2023/01/22 02:49:29;;;;;;;10.80;5.13;;;;;;;0.48;100.00;102101.63;4922911;29;20051;-87
2023/01/22 02:51:57;;;;;;;7.37;4.77;;;;;;;0.32;100.00;102102.69;4921952;29;20058;-85
2023/01/22 02:54:24;;;;;;;7.90;4.97;;;;;;;0.49;100.00;102103.41;4918177;28;20051;-86
2023/01/22 02:56:50;;;;;;;9.97;5.30;;;;;;;0.36;100.00;102101.13;4936036;29;20043;-85
2023/01/22 02:59:17;;;;;;;11.27;5.10;;;;;;;0.39;100.00;102104.72;4952509;28;20063;-86
2023/01/22 03:01:44;;;;;;;8.77;4.83;;;;;;;0.47;100.00;102108.56;4936885;29;20094;-87
2023/01/22 03:04:10;;;;;;;9.43;4.83;;;;;;;0.44;100.00;102104.94;4936385;29;20043;-86
2023/01/22 03:06:42;;;;;;;9.33;4.93;;;;;;;0.49;100.00;102098.22;4951975;29;20051;-86
2023/01/22 03:09:09;;;;;;;9.10;5.13;;;;;;;0.44;100.00;102104.94;4935398;29;20043;-87
2023/01/22 03:11:37;;;;;;;11.93;5.60;;;;;;;0.36;100.00;102098.53;4934268;28;20036;-87
2023/01/22 03:22:22;;;;;;;10.10;4.83;;;;;;;0.43;100.00;102104.06;4937445;29;20420;-85
2023/01/22 03:24:50;;;;;;;10.47;4.30;;;;;;;0.43;100.00;102104.06;4917950;29;20050;-86
2023/01/22 03:27:19;;;;;;;11.20;5.90;;;;;;;0.28;100.00;102104.25;4953495;28;20047;-85
2023/01/22 03:29:46;;;;;;;11.40;5.77;;;;;;;0.23;100.00;102103.16;4919357;29;20047;-87
2023/01/22 03:32:13;;;;;;;9.73;4.77;;;;;;;0.19;100.00;102106.47;4913820;28;20386;-87
2023/01/22 03:34:39;;;;;;;9.80;5.20;;;;;;;0.33;100.00;102114.84;4918693;29;20134;-86
2023/01/22 03:37:07;;;;;;;11.60;5.53;;;;;;;0.38;100.00;102115.06;4915222;29;20173;-86
2023/01/22 03:39:34;;;;;;;10.03;5.83;;;;;;;0.44;100.00;102112.75;4951772;29;20054;-85
2023/01/22 03:42:00;;;;;;;9.13;5.27;;;;;;;0.40;100.00;102114.31;4951824;29;20640;-85
2023/01/22 03:44:27;;;;;;;7.77;5.27;;;;;;;0.32;100.00;102115.66;4921650;29;20528;-86
2023/01/22 03:46:54;;;;;;;12.13;5.90;;;;;;;0.32;100.00;102118.28;4933766;29;20047;-85
2023/01/22 03:49:21;;;;;;;9.43;5.50;;;;;;;0.37;100.00;102118.50;4918447;29;20050;-87
2023/01/22 03:51:47;;;;;;;9.37;4.97;;;;;;;0.30;100.00;102119.91;4918232;29;20529;-85
2023/01/22 03:54:15;;;;;;;9.27;5.10;;;;;;;0.26;100.00;102118.03;4932874;29;20040;-86
2023/01/22 03:56:42;;;;;;;11.60;5.20;;;;;;;0.39;100.00;102114.25;4902661;29;20043;-85
2023/01/22 03:59:09;;;;;;;6.33;4.13;;;;;;;0.39;100.00;102122.94;4935610;29;20047;-85
2023/01/22 04:01:36;;;;;;;9.33;4.93;;;;;;;0.40;100.00;102116.91;4962573;28;20038;-85
2023/01/22 04:04:03;;;;;;;10.17;4.73;;;;;;;0.39;100.00;102114.25;4954543;28;20620;-83
2023/01/22 04:06:29;;;;;;;9.60;4.50;;;;;;;0.35;100.00;102115.81;4953461;29;20043;-86
2023/01/22 04:08:56;;;;;;;11.63;5.10;;;;;;;0.24;100.00;102122.25;4921921;29;20047;-85
2023/01/22 04:11:23;;;;;;;8.80;4.70;;;;;;;0.20;100.00;102123.81;4935787;29;20042;-84
2023/01/22 04:13:50;;;;;;;10.53;5.23;;;;;;;0.17;100.00;102127.97;4937123;29;20047;-85
2023/01/22 04:16:16;;;;;;;11.50;5.67;;;;;;;0.22;100.00;102113.50;4937976;29;20043;-85
2023/01/22 04:18:43;;;;;;;8.47;5.17;;;;;;;0.24;100.00;102124.84;4953673;29;20052;-86
2023/01/22 04:21:10;;;;;;;10.10;5.57;;;;;;;0.36;100.00;102125.41;4950841;29;20042;-86
2023/01/22 04:23:37;;;;;;;7.73;4.83;;;;;;;0.37;100.00;102136.69;4921223;29;20493;-84
2023/01/22 04:26:03;;;;;;;9.23;4.77;;;;;;;0.38;100.00;102135.88;4919313;29;20040;-86
2023/01/22 04:28:30;;;;;;;9.47;4.97;;;;;;;0.30;100.00;102135.53;4930798;29;20138;-87
2023/01/22 04:30:57;;;;;;;11.13;5.27;;;;;;;0.36;100.00;102138.41;4936961;29;20040;-85
2023/01/22 04:33:25;;;;;;;7.43;5.17;;;;;;;0.41;100.00;102131.66;4935569;29;20035;-85
2023/01/22 04:35:53;;;;;;;9.17;5.50;;;;;;;0.23;100.00;102134.34;4945519;29;20066;-86
2023/01/22 04:38:20;;;;;;;8.47;5.30;;;;;;;0.14;100.00;102130.44;4932334;29;20048;-86
2023/01/22 04:40:47;;;;;;;9.43;5.93;;;;;;;0.23;100.00;102133.47;4934503;29;20035;-87
2023/01/22 04:43:13;;;;;;;12.43;5.40;;;;;;;0.44;100.00;102136.16;4920618;29;20090;-86
2023/01/22 04:45:40;;;;;;;10.90;5.60;;;;;;;0.20;100.00;102138.53;4937245;29;20050;-86
2023/01/22 04:48:08;;;;;;;8.37;5.50;;;;;;;0.24;100.00;102143.91;4937922;28;20047;-85
2023/01/22 04:50:34;;;;;;;11.53;5.40;;;;;;;0.34;100.00;102140.06;4973454;28;20046;-88
2023/01/22 04:53:01;;;;;;;10.00;5.73;;;;;;;0.30;100.00;102142.44;4930009;29;20043;-85
2023/01/22 04:55:28;;;;;;;9.60;6.07;;;;;;;0.40;100.00;102147.22;4947440;28;20149;-86
2023/01/22 04:57:56;;;;;;;15.07;6.13;;;;;;;0.26;100.00;102142.31;4969892;28;20117;-85
2023/01/22 05:00:24;;;;;;;8.87;4.80;;;;;;;0.31;100.00;102137.28;4937945;29;20130;-86
2023/01/22 05:02:58;;;;;;;9.83;5.97;;;;;;;0.36;100.00;102150.50;4923007;29;20051;-88
2023/01/22 05:05:26;;;;;;;11.82;6.00;;;;;;;0.37;100.00;102149.69;4923095;29;20054;-85
2023/01/22 05:07:53;;;;;;;12.23;6.03;;;;;;;0.26;100.00;102163.09;4938015;29;20051;-85
2023/01/22 05:10:21;;;;;;;8.67;5.70;;;;;;;0.31;100.00;102154.59;4969520;23;20043;-84
2023/01/22 05:12:48;;;;;;;11.10;5.37;;;;;;;0.24;100.00;102159.50;4980122;28;20031;-84
2023/01/22 05:15:15;;;;;;;10.43;5.53;;;;;;;0.27;100.00;102162.28;4946957;28;20046;-84
2023/01/22 05:17:49;;;;;;;11.03;6.53;;;;;;;0.22;100.00;102162.88;4955198;28;20051;-83
2023/01/22 05:20:16;;;;;;;11.73;5.43;;;;;;;0.42;100.00;102168.97;4980404;28;20038;-84
2023/01/22 05:22:43;;;;;;;9.93;5.67;;;;;;;0.35;100.00;102173.03;4928984;29;20066;-84
2023/01/22 05:25:10;;;;;;;12.03;5.80;;;;;;;0.39;100.00;102181.84;4937005;29;20055;-83
2023/01/22 05:27:36;;;;;;;8.20;4.90;;;;;;;0.21;100.00;102181.88;4921419;29;20047;-83
2023/01/22 05:30:04;;;;;;;12.87;5.83;;;;;;;0.41;100.00;102178.47;4945244;28;20093;-83
2023/01/22 05:32:31;;;;;;;7.67;5.20;;;;;;;0.43;100.00;102189.84;4949452;28;20086;-82
2023/01/22 05:34:58;;;;;;;8.60;5.77;;;;;;;0.26;100.00;102178.69;4952253;28;20038;-83
2023/01/22 05:37:24;;;;;;;8.97;5.57;;;;;;;0.40;100.00;102178.41;4969973;28;20038;-83
2023/01/22 05:39:51;;;;;;;7.60;4.90;;;;;;;0.12;100.00;102189.25;4951810;28;20504;-80
2023/01/22 05:42:18;;;;;;;10.33;5.67;;;;;;;0.35;100.00;102192.94;4956337;29;20035;-83
2023/01/22 05:44:44;;;;;;;10.03;5.63;;;;;;;0.27;100.00;102197.78;4968210;28;20046;-81
2023/01/22 05:47:12;;;;;;;8.10;4.83;;;;;;;0.41;100.00;102196.66;4958833;28;20094;-82
2023/01/22 05:49:39;;;;;;;9.37;5.07;;;;;;;0.27;100.00;102197.78;4959022;28;20121;-84
2023/01/22 05:52:09;;;;;;;9.60;5.43;;;;;;;0.28;100.00;102203.03;4943128;29;20047;-85
2023/01/22 05:54:37;;;;;;;9.33;5.30;;;;;;;0.32;100.00;102203.16;4941466;28;20058;-84
2023/01/22 05:57:04;;;;;;;9.63;5.17;;;;;;;0.32;100.00;102197.97;4959738;28;20367;-84
2023/01/22 05:59:31;;;;;;;9.53;5.77;;;;;;;0.25;100.00;102205.50;4962710;28;20116;-84
2023/01/22 06:01:57;;;;;;;8.87;5.07;;;;;;;0.29;100.00;102214.31;4971605;28;20038;-85
2023/01/22 06:04:24;;;;;;;7.57;4.77;;;;;;;0.21;100.00;102208.75;4950838;28;20053;-83
2023/01/22 06:06:51;;;;;;;8.67;5.00;;;;;;;0.18;100.00;102216.44;4952397;28;20047;-84
2023/01/22 06:09:18;;;;;;;10.50;4.73;;;;;;;0.22;100.00;102213.13;4942228;28;20058;-83
2023/01/22 06:11:44;;;;;;;7.67;4.87;;;;;;;0.23;100.00;102216.63;4956288;28;20230;-83
2023/01/22 06:14:11;;;;;;;9.93;5.80;;;;;;;0.26;100.00;102219.41;4966469;28;20050;-82
2023/01/22 06:16:37;;;;;;;7.73;4.43;;;;;;;0.19;100.00;102223.41;4940715;28;20101;-83
2023/01/22 06:19:04;;;;;;;8.27;4.97;;;;;;;0.32;100.00;102221.38;4922727;29;20046;-84
2023/01/22 06:21:31;;;;;;;6.27;4.30;;;;;;;0.35;100.00;102227.63;4938991;28;20031;-83
2023/01/22 06:23:58;;;;;;;7.20;4.67;;;;;;;0.17;100.00;102225.06;4946752;28;20030;-84
2023/01/22 06:26:24;;;;;;;8.47;4.60;;;;;;;0.33;100.00;102230.94;4957567;28;20047;-83
2023/01/22 06:28:51;;;;;;;7.53;4.40;;;;;;;0.30;100.00;102234.28;4956615;28;20042;-83
2023/01/22 06:31:18;;;;;;;6.93;4.00;;;;;;;0.31;100.00;102229.97;4936475;28;20066;-83
2023/01/22 06:33:45;;;;;;;9.70;5.27;;;;;;;0.18;100.00;102232.03;4924843;28;20073;-84
2023/01/22 06:36:12;;;;;;;7.20;4.70;;;;;;;0.35;100.00;102230.22;4976412;28;20046;-84
2023/01/22 06:38:41;;;;;;;8.50;5.17;;;;;;;0.27;100.00;102234.16;4938777;28;20065;-83
2023/01/22 06:41:08;;;;;;;7.17;4.20;;;;;;;0.39;100.00;102239.91;4947076;28;20039;-83
2023/01/22 06:43:36;;;;;;;8.90;4.83;;;;;;;0.33;100.00;102244.81;4956550;28;20065;-83
2023/01/22 06:46:03;;;;;;;6.47;4.30;;;;;;;0.27;100.00;102240.25;4957814;28;20583;-83
2023/01/22 06:48:30;;;;;;;9.00;4.67;;;;;;;0.24;100.00;102247.88;4941766;28;20089;-83
2023/01/22 06:50:58;;;;;;;8.80;4.13;;;;;;;0.35;100.00;102252.72;4968998;28;20050;-86
2023/01/22 06:53:26;;;;;;;5.53;3.80;;;;;;;0.24;100.00;102263.47;4959292;28;20143;-85
2023/01/22 06:55:53;;;;;;;6.83;4.03;;;;;;;0.46;100.00;102260.19;4948096;28;20047;-84
2023/01/22 06:58:20;;;;;;;5.90;4.00;;;;;;;0.38;100.00;102260.66;4923237;28;20057;-84
2023/01/22 07:00:46;;;;;;;6.30;3.80;;;;;;;0.35;100.00;102264.00;4935090;28;20049;-82
2023/01/22 07:03:14;;;;;;;6.67;3.93;;;;;;;0.22;100.00;102264.25;4958676;28;20681;-85
2023/01/22 07:05:41;;;;;;;6.03;3.73;;;;;;;0.25;100.00;102261.78;4943025;28;20041;-85
2023/01/22 07:08:12;;;;;;;5.57;3.57;;;;;;;0.20;100.00;102276.28;4938400;29;20051;-85
2023/01/22 07:10:39;;;;;;;5.87;3.40;;;;;;;0.46;100.00;102267.97;4960179;28;20093;-85
2023/01/22 07:13:07;;;;;;;5.67;3.33;;;;;;;0.45;100.00;102270.53;4945075;28;20047;-84
2023/01/22 07:15:34;;;;;;;4.70;2.83;;;;;;;0.32;100.00;102271.63;4926066;28;20516;-84
2023/01/22 07:18:01;;;;;;;5.90;3.73;;;;;;;0.40;100.00;102280.69;4962345;28;20427;-85
2023/01/22 07:20:28;;;;;;;6.70;3.50;;;;;;;0.55;100.00;102277.91;4956135;28;20047;-85
2023/01/22 07:22:57;;;;;;;6.27;3.70;;;;;;;0.34;100.00;102282.09;4948017;28;20427;-85
2023/01/22 07:25:26;;;;;;;4.70;3.10;;;;;;;0.47;100.00;102282.75;4939042;28;20098;-85
2023/01/22 07:28:00;;;;;;;5.60;3.50;;;;;;;0.35;100.00;102294.31;4956428;28;20049;-85
2023/01/22 07:30:27;;;;;;;5.37;3.67;;;;;;;0.26;100.00;102285.25;4937644;28;20063;-84
2023/01/22 07:32:58;;;;;;;4.70;2.93;;;;;;;0.42;100.00;102286.88;4931014;28;20069;-83
2023/01/22 07:35:25;;;;;;;4.67;3.07;;;;;;;0.50;100.00;102293.28;4947784;28;20313;-84
2023/01/22 07:37:53;;;;;;;4.80;3.07;;;;;;;0.41;100.00;102285.06;4925118;28;20488;-84
2023/01/22 07:40:23;;;;;;;5.57;3.37;;;;;;;0.52;100.00;102278.69;4955512;28;20451;-82
2023/01/22 07:42:50;;;;;;;5.20;3.33;;;;;;;0.52;100.00;102283.00;4956304;28;20043;-82
2023/01/22 07:45:18;;;;;;;4.23;2.97;;;;;;;0.36;100.00;102278.78;4951569;28;20175;-83
2023/01/22 07:47:57;;;;;;;5.30;3.13;;;;;;;0.50;100.00;102284.59;4921652;28;20049;-82
2023/01/22 07:50:29;;;;;;;4.67;2.87;;;;;;;0.37;100.00;102283.16;4946435;28;20050;-83
2023/01/22 07:52:56;;;;;;;4.37;2.77;;;;;;;0.50;100.00;102285.50;4949440;28;20043;-82
2023/01/22 07:55:23;;;;;;;4.30;2.80;;;;;;;0.40;100.00;102303.19;4945302;28;20547;-82
2023/01/22 07:58:16;;;;;;;4.80;3.30;;;;;;;0.36;100.00;102302.19;4972358;28;20049;-82
2023/01/22 08:00:43;;;;;;;4.97;2.90;;;;;;;0.41;100.00;102294.56;4943819;28;20149;-82
2023/01/22 08:03:10;;;;;;;5.60;3.20;;;;;;;0.55;100.00;102291.81;4960032;28;20126;-82
2023/01/22 08:05:41;;;;;;;4.10;3.20;;;;;;;0.48;100.00;102294.06;4961042;28;20062;-82
2023/01/22 08:08:13;;;;;;;4.13;3.20;;;;;;;0.52;100.00;102290.78;4921415;28;20050;-82
2023/01/22 08:10:40;;;;;;;3.70;2.90;;;;;;;0.50;100.00;102292.41;4930356;28;20043;-81
2023/01/22 08:13:07;;;;;;;4.73;2.63;;;;;;;0.52;100.00;102302.09;4939401;28;20099;-81
2023/01/22 08:15:34;;;;;;;4.23;2.87;;;;;;;0.49;100.00;102306.22;4942959;28;20142;-81
2023/01/22 08:18:01;;;;;;;4.77;2.73;;;;;;;0.31;100.00;102305.38;4949409;28;20113;-82
2023/01/22 08:20:28;;;;;;;3.23;2.50;;;;;;;0.29;100.00;102310.50;4971769;28;20046;-81
2023/01/22 08:22:59;;;;;;;4.37;2.73;;;;;;;0.46;100.00;102309.59;4941584;28;20033;-80
2023/01/22 08:25:26;;;;;;;4.57;2.63;;;;;;;0.40;100.00;102316.19;4944764;28;20042;-81
2023/01/22 08:27:53;;;;;;;5.03;2.70;;;;;;;0.45;100.00;102304.31;4960413;28;20038;-82
2023/01/22 08:30:24;;;;;;;4.70;2.80;;;;;;;0.37;100.00;102313.47;4956749;28;20058;-83
2023/01/22 08:32:52;;;;;;;3.97;2.60;;;;;;;0.36;100.00;102314.28;4984249;28;20502;-83
2023/01/22 08:35:20;;;;;;;4.37;2.73;;;;;;;0.35;100.00;102317.72;5056697;23;20305;-82
2023/01/22 08:37:47;;;;;;;5.97;3.07;;;;;;;0.35;100.00;102315.13;5005325;28;20042;-81
2023/01/22 08:40:14;;;;;;;3.93;2.80;;;;;;;0.45;100.00;102326.00;4993243;28;20050;-83
2023/01/22 08:42:41;;;;;;;4.83;3.20;;;;;;;0.43;100.00;102326.78;5013957;28;20041;-83
2023/01/22 08:45:08;;;;;;;5.03;3.13;;;;;;;0.50;100.00;102329.69;4996262;28;20053;-83
2023/01/22 08:47:35;;;;;;;4.57;3.00;;;;;;;0.53;100.00;102340.25;4995658;28;20102;-83
2023/01/22 08:50:02;;;;;;;4.63;2.80;;;;;;;0.46;100.00;102342.50;5014880;28;20486;-83
2023/01/22 08:52:29;;;;;;;5.70;3.47;;;;;;;0.59;100.00;102343.94;4989947;28;20038;-82
2023/01/22 08:54:56;;;;;;;4.90;3.10;;;;;;;0.50;100.00;102358.31;5013336;28;20040;-82
2023/01/22 08:57:23;;;;;;;5.67;3.40;;;;;;;0.52;100.00;102355.81;5009502;28;20100;-83
2023/01/22 08:59:49;;;;;;;4.50;3.23;;;;;;;0.49;100.00;102358.22;5014643;28;20061;-81
2023/01/22 09:02:26;;;;;;;6.30;3.30;;;;;;;0.54;100.00;102355.03;5001517;28;20041;-82
2023/01/22 09:04:53;;;;;;;6.20;3.83;;;;;;;0.53;100.00;102365.38;4999373;28;20041;-82
2023/01/22 09:07:20;;;;;;;6.70;3.60;;;;;;;0.39;100.00;102371.63;4995504;28;20065;-83
2023/01/22 09:09:47;;;;;;;8.57;4.63;;;;;;;0.46;100.00;102369.41;4991374;28;20045;-82
2023/01/22 09:12:13;;;;;;;6.77;3.97;;;;;;;0.32;100.00;102375.63;4995098;28;20041;-81
2023/01/22 09:14:40;;;;;;;5.57;4.37;;;;;;;0.34;100.00;102375.69;5012982;28;20041;-81
2023/01/22 09:17:07;;;;;;;6.37;4.13;;;;;;;0.56;100.00;102376.81;5014895;28;20077;-83
2023/01/22 09:19:34;;;;;;;7.83;5.07;;;;;;;0.54;100.00;102378.44;5023431;28;20053;-83
2023/01/22 09:22:05;;;;;;;11.80;5.90;;;;;;;0.41;100.00;102380.38;5012546;28;20041;-84
2023/01/22 09:24:32;;;;;;;8.97;4.87;;;;;;;0.61;100.00;102378.75;4994468;28;20124;-84
2023/01/22 09:26:59;;;;;;;8.23;4.33;;;;;;;0.65;100.00;102381.56;4985580;28;20038;-85
2023/01/22 09:29:26;;;;;;;7.93;5.20;;;;;;;0.60;100.00;102379.56;4997627;28;20495;-85
2023/01/22 09:31:52;;;;;;;9.03;5.10;;;;;;;0.68;100.00;102380.84;5012787;28;20065;-85
2023/01/22 09:34:19;;;;;;;9.40;5.23;;;;;;;0.63;100.00;102379.72;5000115;28;20041;-86
2023/01/22 09:36:46;;;;;;;8.40;4.40;;;;;;;0.74;100.00;102383.69;4990809;28;20042;-85
2023/01/22 09:39:13;;;;;;;11.00;5.30;;;;;;;0.71;100.00;102375.75;5026139;28;20061;-85
2023/01/22 09:41:42;;;;;;;7.53;4.77;;;;;;;0.63;100.00;102380.59;5014385;28;20053;-86
2023/01/22 09:44:33;;;;;;;8.63;4.33;;;;;;;0.59;100.00;102388.16;5010363;28;20108;-84
2023/01/22 09:47:11;;;;;;;9.77;5.03;;;;;;;0.68;100.00;102383.44;5007482;28;20037;-84
2023/01/22 09:50:03;;;;;;;7.83;4.33;;;;;;;0.69;100.00;102386.09;4997398;28;20064;-83
2023/01/22 09:52:32;;;;;;;9.80;5.37;;;;;;;0.64;100.00;102378.88;5009755;28;20034;-83
2023/01/22 09:54:59;;;;;;;11.03;5.47;;;;;;;0.61;100.00;102386.56;5011023;28;20053;-84
2023/01/22 09:57:26;;;;;;;8.70;5.10;;;;;;;0.64;100.00;102386.69;4998675;28;20103;-80
2023/01/22 09:59:58;;;;;;;9.30;5.47;;;;;;;0.64;100.00;102387.56;4999453;28;20501;-80
2023/01/22 10:02:30;;;;;;;9.60;4.80;;;;;;;0.78;100.00;102385.63;5008417;28;20057;-79
2023/01/22 10:05:00;;;;;;;7.60;4.03;;;;;;;0.80;100.00;102384.00;5019080;28;20114;-81
2023/01/22 10:07:35;;;;;;;9.60;5.37;;;;;;;0.81;100.00;102390.97;5017375;28;20088;-81
2023/01/22 10:10:16;;;;;;;;;;;;;;;0.70;100.00;102389.59;4998087;28;20084;-82
2023/01/22 10:12:43;;;;;;;14.00;6.33;;;;;;;0.79;100.00;102395.22;4998693;28;19952;-82
2023/01/22 10:15:14;;;;;;;10.57;5.90;;;;;;;0.73;100.00;102387.13;4997938;28;20045;-83
2023/01/22 10:17:41;;;;;;;8.53;5.20;;;;;;;0.66;100.00;102393.72;4993720;28;20042;-83
2023/01/22 10:20:09;;;;;;;10.13;5.33;;;;;;;0.79;100.00;102395.22;5002901;28;20141;-82
2023/01/22 10:22:36;;;;;;;11.87;6.27;;;;;;;0.90;100.00;102398.31;5002152;28;20501;-81
2023/01/22 10:25:03;;;;;;;10.33;6.90;;;;;;;0.69;100.00;102396.50;5016504;28;20049;-82
2023/01/22 10:27:34;;;;;;;9.53;5.30;;;;;;;0.73;100.00;102403.63;5025879;28;20490;-80
2023/01/22 10:30:08;;;;;;;9.70;5.47;;;;;;;0.69;100.00;102401.72;5027629;28;20478;-80
2023/01/22 10:32:35;;;;;;;11.77;6.32;;;;;;;0.77;100.00;102402.97;5028534;28;20044;-82
2023/01/22 10:35:04;;;;;;;11.97;6.93;;;;;;;0.77;100.00;102402.97;4996664;28;20046;-81
2023/01/22 10:37:43;;;;;;;15.97;7.13;;;;;;;0.88;100.00;102399.97;5010648;28;20041;-82
2023/01/22 10:40:33;;;;;;;9.10;5.80;;;;;;;0.82;100.00;102405.75;5016793;28;20144;-81
2023/01/22 10:43:14;;;;;;;12.93;6.20;;;;;;;0.94;100.00;102405.47;5011069;28;20045;-82
2023/01/22 10:45:55;;;;;;;11.37;6.93;;;;;;;1.06;100.00;102403.41;4997919;28;20045;-82
2023/01/22 10:48:23;;;;;;;15.93;8.60;;;;;;;1.17;100.00;102403.91;5008986;28;20041;-84
2023/01/22 10:51:13;;;;;;;15.43;8.33;;;;;;;1.16;100.00;102396.91;4996204;28;20049;-83
2023/01/22 10:53:46;;;;;;;16.40;8.83;;;;;;;1.08;100.00;102404.38;5008434;28;20060;-83
2023/01/22 10:56:24;;;;;;;13.70;7.57;;;;;;;1.29;100.00;102399.25;5008741;28;20843;-84
2023/01/22 10:58:51;;;;;;;17.57;8.80;;;;;;;1.21;100.00;102400.63;4994662;28;20072;-82
2023/01/22 11:01:28;;;;;;;20.10;10.47;;;;;;;1.36;100.00;102407.41;5007074;28;20046;-82
2023/01/22 11:03:55;;;;;;;17.83;8.77;;;;;;;1.22;100.00;102407.63;5022885;28;20503;-84
2023/01/22 11:06:31;;;;;;;14.37;8.03;;;;;;;1.27;100.00;102411.31;4997016;28;20049;-83
2023/01/22 11:09:15;;;;;;;17.00;9.13;;;;;;;1.37;100.00;102400.50;5009977;28;20042;-82
2023/01/22 11:11:48;;;;;;;17.10;8.75;;;;;;;1.21;100.00;102403.22;4994677;28;20042;-83
2023/01/22 11:14:28;;;;;;;18.23;9.70;;;;;;;1.28;100.00;102403.59;5018915;28;20085;-84
2023/01/22 11:16:58;;;;;;;19.73;12.83;;;;;;;1.25;100.00;102397.31;5011739;28;20946;-83
2023/01/22 11:19:26;;;;;;;18.57;9.30;;;;;;;1.27;100.00;102399.19;5011508;28;20038;-85
2023/01/22 11:22:10;;;;;;;129.27;90.20;;;;;;;1.35;100.00;102397.84;5010103;28;20384;-84
2023/01/22 11:24:45;;;;;;;;;;;;;;;1.18;100.00;102395.25;5008521;28;20045;-83
2023/01/22 11:27:19;;;;;;;109.80;72.30;;;;;;;1.32;100.00;102389.88;4998008;28;19971;-82
2023/01/22 11:30:17;;;;;;;19.25;12.43;;;;;;;1.33;100.00;102393.34;4999214;28;20045;-83
2023/01/22 11:33:02;;;;;;;13.13;8.57;;;;;;;1.32;100.00;102395.06;5026706;28;20034;-83
2023/01/22 11:35:40;;;;;;;16.30;8.27;;;;;;;1.33;100.00;102388.16;5025712;28;20045;-81
2023/01/22 11:38:42;;;;;;;15.27;8.07;;;;;;;1.38;100.00;102391.84;5006591;28;22524;-81
2023/01/22 11:41:46;;;;;;;13.23;8.00;;;;;;;1.28;100.00;102393.16;5005484;28;20046;-82
2023/01/22 11:44:39;;;;;;;13.80;8.40;;;;;;;1.23;100.00;102394.66;4997045;28;20046;-82
2023/01/22 11:47:23;;;;;;;16.50;8.80;;;;;;;1.18;100.00;102388.38;5012593;28;20103;-83